Time;durP1;ratioP1;P1;durP2;ratioP2;P2;SDS_P1;SDS_P2;PMS_P1;PMS_P2;Temp;Humidity;BMP_temperature;BMP_pressure;BME280_temperature;BME280_humidity;BME280_pressure;Samples;Min_cycle;Max_cycle;Signal;HPM_P1;HPM_P2
2023/05/23 00:00:54;;;;;;;32.13;17.98;;;14.40;99.90;;;;;;5136341;27;20433;-79
2023/05/23 00:03:23;;;;;;;32.95;17.80;;;14.40;99.90;;;;;;5117288;27;20152;-77
2023/05/23 00:05:50;;;;;;;28.92;17.70;;;14.40;99.90;;;;;;5118131;27;20047;-78
2023/05/23 00:08:16;;;;;;;27.80;17.05;;;14.50;99.90;;;;;;5135817;27;20047;-78
2023/05/23 00:10:42;;;;;;;30.00;17.23;;;14.50;99.90;;;;;;5136652;27;20050;-76
2023/05/23 00:13:08;;;;;;;31.15;16.92;;;14.50;99.90;;;;;;5136175;27;20055;-76
2023/05/23 00:15:36;;;;;;;28.17;14.75;;;14.50;99.90;;;;;;5135832;27;20043;-75
2023/05/23 00:18:02;;;;;;;28.02;15.75;;;14.50;99.90;;;;;;5135749;27;20075;-76
2023/05/23 00:20:29;;;;;;;26.17;14.30;;;14.50;99.90;;;;;;5135551;27;20063;-75
2023/05/23 00:22:57;;;;;;;23.15;13.60;;;14.50;99.90;;;;;;5135439;27;20128;-75
2023/05/23 00:25:32;;;;;;;26.00;13.80;;;14.50;99.90;;;;;;5135241;27;20486;-76
2023/05/23 00:27:59;;;;;;;26.02;13.90;;;14.50;99.90;;;;;;5118433;27;20134;-75
2023/05/23 00:30:29;;;;;;;26.23;14.48;;;14.50;99.90;;;;;;5135615;27;20047;-77
2023/05/23 00:32:55;;;;;;;21.85;12.68;;;14.50;99.90;;;;;;5135041;27;20104;-75
2023/05/23 00:35:20;;;;;;;26.00;13.27;;;14.50;99.90;;;;;;5136705;27;20417;-75
2023/05/23 00:37:49;;;;;;;21.60;12.52;;;14.50;99.90;;;;;;5100466;27;20418;-76
2023/05/23 00:40:14;;;;;;;20.85;11.65;;;14.50;99.90;;;;;;5135421;27;20164;-75
2023/05/23 00:42:40;;;;;;;25.67;10.55;;;14.50;99.90;;;;;;5135375;27;20039;-76
2023/05/23 00:45:06;;;;;;;17.48;10.10;;;14.50;99.90;;;;;;5100526;27;20043;-76
2023/05/23 00:47:32;;;;;;;17.45;8.73;;;14.50;99.90;;;;;;5135011;27;20043;-76
2023/05/23 00:49:59;;;;;;;18.63;8.90;;;14.50;99.90;;;;;;5135249;27;20386;-77
2023/05/23 00:52:25;;;;;;;17.67;9.00;;;14.50;99.90;;;;;;5135223;27;20551;-76
2023/05/23 00:54:51;;;;;;;17.92;8.60;;;14.50;99.90;;;;;;5135308;27;20130;-76
2023/05/23 00:57:16;;;;;;;14.93;8.38;;;14.50;99.90;;;;;;5134701;27;20049;-77
2023/05/23 00:59:44;;;;;;;15.95;8.07;;;14.60;99.90;;;;;;5134777;27;20491;-76
2023/05/23 01:02:11;;;;;;;16.23;8.88;;;14.60;99.90;;;;;;5134441;27;20047;-76
2023/05/23 01:04:37;;;;;;;14.25;8.60;;;14.60;99.90;;;;;;5117017;27;20055;-76
2023/05/23 01:07:03;;;;;;;17.70;8.60;;;14.60;99.90;;;;;;5134580;27;20500;-76
2023/05/23 01:09:30;;;;;;;17.38;9.73;;;14.60;99.90;;;;;;5135274;27;20104;-78
2023/05/23 01:12:05;;;;;;;17.10;9.80;;;14.60;99.90;;;;;;5099870;27;20047;-77
2023/05/23 01:14:56;;;;;;;13.60;10.13;;;14.60;99.90;;;;;;5134780;27;20133;-80
2023/05/23 01:17:34;;;;;;;16.20;10.75;;;14.90;99.90;;;;;;5116667;27;20047;-77
2023/05/23 01:20:14;;;;;;;18.25;11.15;;;14.60;99.90;;;;;;5134323;27;20043;-77
2023/05/23 01:23:01;;;;;;;21.30;11.30;;;14.60;99.90;;;;;;5116528;27;20055;-76
2023/05/23 01:26:04;;;;;;;16.15;10.43;;;14.60;99.90;;;;;;5134681;27;20055;-77
2023/05/23 01:28:39;;;;;;;16.52;10.35;;;14.60;99.90;;;;;;5134704;27;20042;-79
2023/05/23 01:31:07;;;;;;;17.95;10.85;;;14.60;99.90;;;;;;5100183;27;20543;-77
2023/05/23 01:33:35;;;;;;;17.55;10.02;;;14.60;99.90;;;;;;5134175;27;20054;-76
2023/05/23 01:36:04;;;;;;;15.75;10.38;;;14.50;99.90;;;;;;5134521;28;20050;-78
2023/05/23 01:38:30;;;;;;;13.60;8.98;;;14.50;99.90;;;;;;5134486;28;20043;-78
2023/05/23 01:40:56;;;;;;;13.45;9.02;;;14.50;99.90;;;;;;5134805;28;20054;-76
2023/05/23 01:43:23;;;;;;;14.75;9.23;;;14.50;99.90;;;;;;5134496;28;20054;-78
2023/05/23 01:45:50;;;;;;;14.00;8.18;;;14.50;99.90;;;;;;5134493;28;20039;-81
2023/05/23 01:48:17;;;;;;;11.98;8.15;;;14.40;99.90;;;;;;5134371;28;20039;-79
2023/05/23 01:50:46;;;;;;;12.48;7.53;;;14.40;99.90;;;;;;5135595;27;20047;-81
2023/05/23 01:53:21;;;;;;;11.50;6.70;;;14.30;99.90;;;;;;5155262;27;20038;-78
2023/05/23 01:55:47;;;;;;;12.77;7.00;;;14.30;99.90;;;;;;5155258;27;20443;-77
2023/05/23 01:58:13;;;;;;;11.90;7.10;;;14.30;99.90;;;;;;5155058;27;20125;-78
2023/05/23 02:00:38;;;;;;;10.48;6.32;;;14.30;99.90;;;;;;5154730;27;20129;-81
2023/05/23 02:03:04;;;;;;;8.93;6.25;;;14.30;99.90;;;;;;5135976;27;20050;-79
2023/05/23 02:05:30;;;;;;;8.65;6.00;;;14.30;99.90;;;;;;5136539;27;20447;-80
2023/05/23 02:07:56;;;;;;;11.50;6.18;;;14.20;99.90;;;;;;5136547;27;20038;-73
2023/05/23 02:10:22;;;;;;;10.05;6.00;;;14.20;99.90;;;;;;5154933;27;20146;-78
2023/05/23 02:12:47;;;;;;;10.07;5.15;;;14.20;99.90;;;;;;5154846;27;20047;-85
2023/05/23 02:15:13;;;;;;;8.95;5.47;;;14.10;99.90;;;;;;5137062;27;20050;-77
2023/05/23 02:17:40;;;;;;;9.73;4.55;;;14.10;99.90;;;;;;5154707;27;20053;-80
2023/05/23 02:20:07;;;;;;;10.50;4.68;;;14.10;99.90;;;;;;5154892;27;20542;-80
2023/05/23 02:22:34;;;;;;;9.77;4.32;;;14.00;99.90;;;;;;5155486;27;20094;-77
2023/05/23 02:25:00;;;;;;;10.75;3.75;;;14.00;99.90;;;;;;5136836;27;20055;-81
2023/05/23 02:27:26;;;;;;;10.88;4.10;;;14.00;99.90;;;;;;5154533;27;20409;-79
2023/05/23 02:29:51;;;;;;;12.07;4.63;;;13.90;99.90;;;;;;5154806;27;20053;-81
2023/05/23 02:32:17;;;;;;;11.60;4.25;;;13.90;99.90;;;;;;5156839;27;20049;-83
2023/05/23 02:34:45;;;;;;;14.82;4.70;;;13.80;99.90;;;;;;5140012;27;20049;-81
2023/05/23 02:37:12;;;;;;;11.88;3.75;;;13.80;99.90;;;;;;5158701;27;20047;-78
2023/05/23 02:39:38;;;;;;;11.75;4.80;;;13.80;99.90;;;;;;5140207;27;20049;-79
2023/05/23 02:42:04;;;;;;;10.70;4.78;;;13.70;99.90;;;;;;5089150;27;20047;-78
2023/05/23 02:44:29;;;;;;;13.32;4.90;;;13.70;99.90;;;;;;5159006;27;20042;-80
2023/05/23 02:46:55;;;;;;;10.63;4.90;;;13.70;99.90;;;;;;5158409;27;20078;-77
2023/05/23 02:49:21;;;;;;;11.85;4.97;;;13.70;99.90;;;;;;5158324;27;20417;-84
2023/05/23 02:51:47;;;;;;;11.23;4.68;;;13.70;99.90;;;;;;5123046;27;20095;-81
2023/05/23 02:54:12;;;;;;;10.82;4.65;;;13.70;99.90;;;;;;5140001;27;20439;-79
2023/05/23 02:56:38;;;;;;;16.10;4.90;;;13.70;99.90;;;;;;5158915;27;20045;-80
2023/05/23 02:59:04;;;;;;;14.25;4.80;;;13.70;99.90;;;;;;5158054;27;20042;-75
2023/05/23 03:01:30;;;;;;;16.45;5.30;;;13.70;99.90;;;;;;5158206;27;20444;-78
2023/05/23 03:03:56;;;;;;;12.98;5.22;;;13.70;99.90;;;;;;5157553;27;20042;-79
2023/05/23 03:06:21;;;;;;;10.27;4.05;;;13.60;99.90;;;;;;5158165;27;20045;-76
2023/05/23 03:08:47;;;;;;;7.07;3.80;;;13.60;99.90;;;;;;5157942;27;20058;-76
2023/05/23 03:11:13;;;;;;;7.68;4.18;;;13.50;99.90;;;;;;5106000;27;20195;-80
2023/05/23 03:13:39;;;;;;;9.15;3.35;;;13.50;99.90;;;;;;5157770;27;20043;-82
2023/05/23 03:16:05;;;;;;;7.43;3.65;;;13.50;99.90;;;;;;5139590;27;20047;-80
2023/05/23 03:18:30;;;;;;;10.80;4.00;;;13.40;99.90;;;;;;5157903;27;20066;-81
2023/05/23 03:20:57;;;;;;;7.28;3.58;;;13.40;99.90;;;;;;5122371;27;20055;-75
2023/05/23 03:23:23;;;;;;;10.13;4.13;;;13.40;99.90;;;;;;5157645;27;20130;-82
2023/05/23 03:25:48;;;;;;;11.50;4.40;;;13.30;99.90;;;;;;5139336;27;20074;-78
2023/05/23 03:28:14;;;;;;;8.85;4.20;;;13.30;99.90;;;;;;5139207;27;20073;-82
2023/05/23 03:30:40;;;;;;;8.45;4.20;;;13.30;99.90;;;;;;5139633;27;20046;-79
2023/05/23 03:33:06;;;;;;;9.70;3.92;;;13.20;99.90;;;;;;5156902;27;20095;-79
2023/05/23 03:35:31;;;;;;;7.43;3.45;;;13.20;99.90;;;;;;5121925;27;20046;-79
2023/05/23 03:37:57;;;;;;;7.97;3.13;;;13.20;99.90;;;;;;5157224;27;20038;-78
2023/05/23 03:40:23;;;;;;;6.40;2.70;;;13.10;99.90;;;;;;5157302;27;20088;-80
2023/05/23 03:43:01;;;;;;;6.32;2.13;;;13.10;99.90;;;;;;5157138;27;20051;-83
2023/05/23 03:45:26;;;;;;;6.80;2.35;;;13.00;99.90;;;;;;5157693;27;20117;-87
2023/05/23 03:47:52;;;;;;;7.63;2.58;;;13.00;99.90;;;;;;5157189;27;20126;-81
2023/05/23 03:50:18;;;;;;;8.98;3.20;;;12.90;99.90;;;;;;5157228;27;20053;-85
2023/05/23 03:52:43;;;;;;;8.73;3.80;;;12.90;99.90;;;;;;5157124;27;20057;-85
2023/05/23 03:55:10;;;;;;;8.50;3.60;;;12.90;99.90;;;;;;5121664;27;20053;-81
2023/05/23 03:57:35;;;;;;;10.98;4.13;;;12.90;99.90;;;;;;5157459;27;20170;-84
2023/05/23 04:00:05;;;;;;;9.63;4.20;;;12.80;99.90;;;;;;5157375;27;20046;-83
2023/05/23 04:02:31;;;;;;;12.73;3.78;;;12.90;99.90;;;;;;5138047;27;20038;-80
2023/05/23 04:04:57;;;;;;;10.93;3.70;;;12.90;99.90;;;;;;5156842;27;20050;-83
2023/05/23 04:07:25;;;;;;;10.15;4.30;;;12.80;99.90;;;;;;5138267;27;20061;-77
2023/05/23 04:09:51;;;;;;;9.18;3.90;;;12.90;99.90;;;;;;5138269;27;20039;-81
2023/05/23 04:12:16;;;;;;;8.85;3.38;;;12.80;99.90;;;;;;5138321;27;20053;-77
2023/05/23 04:14:42;;;;;;;9.30;3.97;;;12.80;99.90;;;;;;5156679;27;20038;-81
2023/05/23 04:17:08;;;;;;;11.73;3.60;;;12.80;99.90;;;;;;5157048;27;20133;-81
2023/05/23 04:19:34;;;;;;;12.50;4.38;;;12.80;99.90;;;;;;5138313;27;20039;-83
2023/05/23 04:22:00;;;;;;;11.95;3.42;;;12.80;99.90;;;;;;5120761;27;20058;-79
2023/05/23 04:24:25;;;;;;;9.98;3.45;;;12.80;99.90;;;;;;5138123;27;20087;-83
2023/05/23 04:26:51;;;;;;;11.40;3.70;;;12.80;99.90;;;;;;5156460;27;20043;-81
2023/05/23 04:29:17;;;;;;;6.53;3.50;;;12.80;99.90;;;;;;5156677;27;20074;-83
2023/05/23 04:31:44;;;;;;;8.68;3.65;;;12.70;99.90;;;;;;5156353;27;20039;-79
2023/05/23 04:34:10;;;;;;;7.97;3.58;;;12.70;99.90;;;;;;5155752;27;20398;-82
2023/05/23 04:36:36;;;;;;;8.50;3.80;;;12.70;99.90;;;;;;5156184;27;20074;-79
2023/05/23 04:39:04;;;;;;;7.72;3.22;;;12.70;99.90;;;;;;5156115;27;20139;-80
2023/05/23 04:41:30;;;;;;;11.43;2.95;;;12.80;99.90;;;;;;5156150;27;20176;-83
2023/05/23 04:43:56;;;;;;;7.57;3.20;;;12.80;99.90;;;;;;5156097;27;20078;-80
2023/05/23 04:46:25;;;;;;;9.75;2.78;;;12.80;99.90;;;;;;5137693;27;20135;-84
2023/05/23 04:48:52;;;;;;;8.48;2.42;;;12.70;99.90;;;;;;5155976;27;20038;-82
2023/05/23 04:51:20;;;;;;;9.63;2.58;;;12.80;99.90;;;;;;5156310;27;20121;-80
2023/05/23 04:53:46;;;;;;;7.95;2.88;;;12.80;99.90;;;;;;5120698;27;20082;-80
2023/05/23 04:56:12;;;;;;;8.40;3.08;;;12.70;99.90;;;;;;5155179;27;20394;-81
2023/05/23 04:58:39;;;;;;;8.80;2.85;;;12.70;99.90;;;;;;5137172;27;20045;-84
2023/05/23 05:01:05;;;;;;;8.48;2.35;;;12.70;99.90;;;;;;5103500;27;20126;-81
2023/05/23 05:03:31;;;;;;;8.27;2.20;;;12.70;99.90;;;;;;5155423;27;20051;-82
2023/05/23 05:05:56;;;;;;;9.95;2.55;;;12.70;99.90;;;;;;5156294;27;20541;-85
2023/05/23 05:08:22;;;;;;;9.10;2.50;;;12.70;99.90;;;;;;5137146;27;20062;-76
2023/05/23 05:10:48;;;;;;;5.53;2.17;;;12.70;99.90;;;;;;5156068;27;20416;-84
2023/05/23 05:13:13;;;;;;;11.70;2.35;;;12.70;99.90;;;;;;5155610;27;20046;-81
2023/05/23 05:15:39;;;;;;;5.80;1.90;;;12.70;99.90;;;;;;5156470;27;20094;-77
2023/05/23 05:18:05;;;;;;;6.68;2.63;;;12.70;99.90;;;;;;5157143;27;20479;-78
2023/05/23 05:20:31;;;;;;;8.77;2.28;;;12.60;99.90;;;;;;5156686;27;20466;-80
2023/05/23 05:22:57;;;;;;;8.38;2.17;;;12.60;99.90;;;;;;5156144;27;20058;-78
2023/05/23 05:25:23;;;;;;;6.50;1.85;;;12.60;99.90;;;;;;5155596;27;20083;-84
2023/05/23 05:27:49;;;;;;;10.60;2.40;;;12.60;99.90;;;;;;5155383;27;20078;-83
2023/05/23 05:30:15;;;;;;;10.05;1.63;;;12.60;99.90;;;;;;5155326;27;20047;-77
2023/05/23 05:32:44;;;;;;;6.32;1.92;;;12.60;99.90;;;;;;5155279;27;20038;-76
2023/05/23 05:35:12;;;;;;;8.68;2.20;;;12.60;99.90;;;;;;5155294;27;20053;-76
2023/05/23 05:37:38;;;;;;;11.55;2.08;;;12.50;99.90;;;;;;5155214;27;20455;-76
2023/05/23 05:40:07;;;;;;;9.02;2.90;;;12.50;99.90;;;;;;5155215;27;20121;-78
2023/05/23 05:42:32;;;;;;;13.43;3.13;;;12.50;99.90;;;;;;5155313;27;20054;-77
2023/05/23 05:44:58;;;;;;;11.15;2.55;;;12.50;99.90;;;;;;5155274;27;20039;-74
2023/05/23 05:47:24;;;;;;;7.50;2.92;;;12.50;99.90;;;;;;5136916;27;20199;-80
2023/05/23 05:49:50;;;;;;;10.52;3.53;;;12.40;99.90;;;;;;5136943;27;20077;-75
2023/05/23 05:52:16;;;;;;;8.00;3.40;;;12.40;99.90;;;;;;5155181;27;20469;-79
2023/05/23 05:54:41;;;;;;;10.98;3.67;;;12.40;99.90;;;;;;5155128;27;20050;-85
2023/05/23 05:57:07;;;;;;;8.70;2.97;;;12.40;99.90;;;;;;5155177;27;20045;-76
2023/05/23 05:59:33;;;;;;;8.43;3.10;;;12.30;99.90;;;;;;5136142;27;20398;-78
2023/05/23 06:01:58;;;;;;;7.78;3.20;;;12.30;99.90;;;;;;5136606;27;20046;-78
2023/05/23 06:04:24;;;;;;;8.27;3.55;;;12.30;99.90;;;;;;5154500;27;20130;-76
2023/05/23 06:06:50;;;;;;;9.68;3.50;;;12.30;99.90;;;;;;5138145;27;20090;-76
2023/05/23 06:09:16;;;;;;;7.30;2.75;;;12.30;99.90;;;;;;5142801;27;20043;-77
2023/05/23 06:11:42;;;;;;;9.82;2.90;;;12.20;99.90;;;;;;5159761;27;20471;-75
2023/05/23 06:14:08;;;;;;;7.30;2.80;;;12.20;99.90;;;;;;5140544;27;20074;-75
2023/05/23 06:16:34;;;;;;;11.35;3.25;;;12.20;99.90;;;;;;5140587;27;20478;-74
2023/05/23 06:19:00;;;;;;;10.10;3.42;;;12.20;99.90;;;;;;5158991;27;20074;-77
2023/05/23 06:21:26;;;;;;;16.67;3.55;;;12.20;99.90;;;;;;5158811;27;20051;-77
2023/05/23 06:23:52;;;;;;;8.50;2.78;;;12.20;99.90;;;;;;5158832;27;20047;-77
2023/05/23 06:26:18;;;;;;;10.13;2.35;;;12.20;99.90;;;;;;5158911;27;20426;-86
2023/05/23 06:28:43;;;;;;;9.65;3.08;;;12.10;99.90;;;;;;5140489;27;20042;-77
2023/05/23 06:31:09;;;;;;;6.03;2.40;;;12.10;99.90;;;;;;5158475;27;20047;-79
2023/05/23 06:33:35;;;;;;;7.65;2.35;;;12.10;99.90;;;;;;5122915;27;20051;-77
2023/05/23 06:36:00;;;;;;;7.00;2.53;;;12.10;99.90;;;;;;5140134;27;20126;-76
2023/05/23 06:38:30;;;;;;;7.35;1.73;;;12.10;99.90;;;;;;5158421;27;20137;-74
2023/05/23 06:40:55;;;;;;;5.60;1.83;;;12.10;99.90;;;;;;5139999;27;20046;-79
2023/05/23 06:43:21;;;;;;;6.80;1.65;;;12.10;99.90;;;;;;5159098;27;20054;-73
2023/05/23 06:45:47;;;;;;;6.47;1.40;;;12.10;99.90;;;;;;5139900;27;20558;-75
2023/05/23 06:48:13;;;;;;;8.18;1.42;;;12.00;99.90;;;;;;5139748;27;20046;-79
2023/05/23 06:50:40;;;;;;;7.80;2.10;;;12.00;99.90;;;;;;5140018;27;20046;-76
2023/05/23 06:53:06;;;;;;;5.45;1.30;;;12.00;99.90;;;;;;5139877;27;20053;-76
2023/05/23 06:55:32;;;;;;;10.10;2.05;;;12.00;99.90;;;;;;5158010;27;20054;-77
2023/05/23 06:57:59;;;;;;;9.85;2.00;;;12.10;99.90;;;;;;5158193;27;20043;-76
2023/05/23 07:00:25;;;;;;;7.78;2.08;;;12.00;99.90;;;;;;5139551;27;20054;-80
2023/05/23 07:02:50;;;;;;;6.72;1.50;;;12.10;99.90;;;;;;5139166;27;20043;-74
2023/05/23 07:05:16;;;;;;;8.70;2.08;;;12.00;99.90;;;;;;5139849;27;20050;-76
2023/05/23 07:07:42;;;;;;;7.70;2.28;;;12.00;99.90;;;;;;5158188;27;20063;-80
2023/05/23 07:10:09;;;;;;;8.68;1.98;;;12.10;99.90;;;;;;5122603;27;20046;-74
2023/05/23 07:12:35;;;;;;;10.15;2.20;;;12.10;99.90;;;;;;5159008;27;20046;-77
2023/05/23 07:15:01;;;;;;;6.50;2.03;;;12.10;99.90;;;;;;5141672;27;20489;-77
2023/05/23 07:17:29;;;;;;;10.50;2.30;;;12.20;99.90;;;;;;5139460;27;20043;-74
2023/05/23 07:19:55;;;;;;;10.77;1.85;;;12.20;99.90;;;;;;5157219;27;20247;-73
2023/05/23 07:22:20;;;;;;;9.35;1.88;;;12.20;99.90;;;;;;5158398;27;20050;-78
2023/05/23 07:24:46;;;;;;;7.25;1.90;;;12.20;99.90;;;;;;5157806;27;20107;-77
2023/05/23 07:27:12;;;;;;;7.40;2.33;;;12.30;99.90;;;;;;5139100;27;20383;-77
2023/05/23 07:29:38;;;;;;;11.25;2.35;;;12.20;99.90;;;;;;5157430;27;20074;-75
2023/05/23 07:32:04;;;;;;;11.95;2.00;;;12.20;99.90;;;;;;5157622;27;20483;-80
2023/05/23 07:34:30;;;;;;;11.20;2.47;;;12.30;99.90;;;;;;5156571;27;20064;-78
2023/05/23 07:36:55;;;;;;;13.02;2.15;;;12.30;99.90;;;;;;5156692;27;20046;-82
2023/05/23 07:39:23;;;;;;;8.77;1.95;;;12.30;99.90;;;;;;5156945;27;20118;-85
2023/05/23 07:41:49;;;;;;;11.35;2.25;;;12.30;99.90;;;;;;5157211;27;20049;-81
2023/05/23 07:44:16;;;;;;;8.48;1.80;;;12.40;99.90;;;;;;5138642;27;20452;-82
2023/05/23 07:46:42;;;;;;;10.65;1.98;;;12.40;99.90;;;;;;5121460;27;20516;-82
2023/05/23 07:49:08;;;;;;;8.63;1.77;;;12.30;99.90;;;;;;5138687;27;20081;-78
2023/05/23 07:51:34;;;;;;;11.52;2.08;;;12.30;99.90;;;;;;5157000;27;20042;-82
2023/05/23 07:54:00;;;;;;;8.95;1.85;;;12.30;99.90;;;;;;5121497;27;20039;-81
2023/05/23 07:56:26;;;;;;;10.50;2.15;;;12.30;99.90;;;;;;5135736;27;20039;-83
2023/05/23 07:58:51;;;;;;;11.95;2.13;;;12.40;99.90;;;;;;5102384;27;20141;-83
2023/05/23 08:01:17;;;;;;;7.90;1.40;;;12.40;99.90;;;;;;5138273;27;20035;-80
2023/05/23 08:03:43;;;;;;;10.68;2.17;;;12.40;99.90;;;;;;5120092;27;20038;-79
2023/05/23 08:06:09;;;;;;;10.57;2.03;;;12.40;99.90;;;;;;5156487;27;20035;-76
2023/05/23 08:08:35;;;;;;;8.25;2.05;;;12.40;99.90;;;;;;5156655;27;20050;-77
2023/05/23 08:11:01;;;;;;;7.30;1.70;;;12.40;99.90;;;;;;5156533;27;20042;-77
2023/05/23 08:13:27;;;;;;;8.98;2.40;;;12.50;99.90;;;;;;5138285;27;20043;-78
2023/05/23 08:15:53;;;;;;;7.88;2.10;;;12.50;99.90;;;;;;5156719;27;20042;-78
2023/05/23 08:18:19;;;;;;;10.07;2.05;;;12.60;99.90;;;;;;5121494;27;20043;-71
2023/05/23 08:20:45;;;;;;;10.95;2.33;;;12.60;99.90;;;;;;5157694;27;20049;-84
2023/05/23 08:23:11;;;;;;;7.40;1.80;;;12.70;99.90;;;;;;5156812;27;20050;-82
2023/05/23 08:25:38;;;;;;;9.10;1.63;;;12.70;99.90;;;;;;5138882;27;20431;-80
2023/05/23 08:28:04;;;;;;;9.70;1.77;;;12.70;99.90;;;;;;5156622;27;20067;-82
2023/05/23 08:30:31;;;;;;;6.50;2.10;;;12.70;99.90;;;;;;5138518;27;20463;-78
2023/05/23 08:32:59;;;;;;;9.35;2.03;;;12.70;99.90;;;;;;5138483;27;20046;-77
2023/05/23 08:35:28;;;;;;;13.50;2.17;;;12.70;99.90;;;;;;5159999;27;20038;-76
2023/05/23 08:37:55;;;;;;;12.52;2.17;;;12.80;99.90;;;;;;5141896;27;20046;-78
2023/05/23 08:40:23;;;;;;;5.68;1.98;;;12.80;99.90;;;;;;5158523;27;20063;-80
2023/05/23 08:42:50;;;;;;;7.65;2.10;;;12.90;99.90;;;;;;5156777;27;20402;-87
2023/05/23 08:45:16;;;;;;;10.40;2.35;;;13.00;99.90;;;;;;5156258;27;20050;-77
2023/05/23 08:47:43;;;;;;;11.45;2.08;;;13.10;99.90;;;;;;5121537;27;20082;-73
2023/05/23 08:50:14;;;;;;;11.23;2.25;;;13.20;99.90;;;;;;5120769;27;20043;-80
2023/05/23 08:52:55;;;;;;;12.85;2.38;;;13.20;99.90;;;;;;5156200;27;20039;-78
2023/05/23 08:55:26;;;;;;;10.70;2.22;;;13.10;99.90;;;;;;5156244;27;20080;-78
2023/05/23 08:57:53;;;;;;;9.60;1.50;;;13.10;99.90;;;;;;5137777;27;20053;-78
2023/05/23 09:00:20;;;;;;;6.53;1.80;;;13.20;99.90;;;;;;5137603;27;20049;-76
2023/05/23 09:02:46;;;;;;;8.63;1.85;;;13.10;99.90;;;;;;5156017;27;20038;-73
2023/05/23 09:05:12;;;;;;;7.95;1.98;;;13.20;99.90;;;;;;5155214;27;20383;-71
2023/05/23 09:07:45;;;;;;;7.68;1.80;;;13.20;99.90;;;;;;5155839;27;20038;-77
2023/05/23 09:10:13;;;;;;;10.35;1.90;;;13.10;99.90;;;;;;5156505;27;20047;-79
2023/05/23 09:12:39;;;;;;;9.32;2.20;;;13.10;99.90;;;;;;5155776;27;20122;-78
2023/05/23 09:15:06;;;;;;;10.13;2.15;;;13.10;99.90;;;;;;5155745;27;20474;-79
2023/05/23 09:17:32;;;;;;;9.07;2.20;;;13.20;99.90;;;;;;5155768;27;20043;-74
2023/05/23 09:19:59;;;;;;;8.85;1.98;;;13.20;99.90;;;;;;5155672;27;20549;-75
2023/05/23 09:22:26;;;;;;;10.77;2.05;;;13.20;99.90;;;;;;5155683;27;20058;-73
2023/05/23 09:24:54;;;;;;;8.23;1.65;;;13.30;99.90;;;;;;5138669;27;20046;-76
2023/05/23 09:27:20;;;;;;;8.82;1.67;;;13.40;99.90;;;;;;5137412;27;20035;-76
2023/05/23 09:29:46;;;;;;;8.40;1.73;;;13.40;99.90;;;;;;5137356;27;20123;-76
2023/05/23 09:32:13;;;;;;;9.55;2.30;;;13.40;99.90;;;;;;5120297;27;20039;-74
2023/05/23 09:34:59;;;;;;;9.63;2.17;;;13.50;99.90;;;;;;5154779;27;20048;-82
2023/05/23 09:37:34;;;;;;;8.57;1.77;;;13.40;99.90;;;;;;5137202;27;20115;-73
2023/05/23 09:40:05;;;;;;;9.65;1.80;;;13.40;99.90;;;;;;5137305;27;20053;-75
2023/05/23 09:42:35;;;;;;;9.95;1.67;;;13.30;99.90;;;;;;5137661;27;20479;-77
2023/05/23 09:45:01;;;;;;;8.55;1.95;;;13.30;99.90;;;;;;5139631;27;20126;-75
2023/05/23 09:47:27;;;;;;;10.52;2.00;;;13.20;99.90;;;;;;5155191;27;20436;-75
2023/05/23 09:49:53;;;;;;;9.05;1.73;;;13.20;99.90;;;;;;5137288;27;20363;-82
2023/05/23 09:52:19;;;;;;;10.68;1.98;;;13.20;99.90;;;;;;5136864;27;20057;-79
2023/05/23 09:54:45;;;;;;;6.38;1.40;;;13.20;99.90;;;;;;5155349;27;20509;-74
2023/05/23 09:57:14;;;;;;;7.68;1.60;;;13.30;99.90;;;;;;5136941;27;20116;-72
2023/05/23 09:59:41;;;;;;;5.10;1.85;;;13.40;99.90;;;;;;5136419;27;20038;-75
2023/05/23 10:02:10;;;;;;;9.15;1.70;;;13.40;99.90;;;;;;5155263;27;20050;-73
2023/05/23 10:04:38;;;;;;;8.32;2.15;;;13.40;99.90;;;;;;5151303;27;20050;-73
2023/05/23 10:07:13;;;;;;;7.32;2.05;;;13.60;99.90;;;;;;5153339;27;20443;-74
2023/05/23 10:09:40;;;;;;;8.60;1.90;;;13.60;99.90;;;;;;5152011;27;20043;-78
2023/05/23 10:12:25;;;;;;;9.38;1.85;;;13.70;99.90;;;;;;5136603;27;20075;-72
2023/05/23 10:14:56;;;;;;;6.22;1.42;;;13.80;99.90;;;;;;5154355;27;20062;-71
2023/05/23 10:17:45;;;;;;;8.55;1.80;;;13.80;99.90;;;;;;5128462;27;20054;-74
2023/05/23 10:20:15;;;;;;;9.23;1.75;;;13.80;99.90;;;;;;5153356;27;20050;-73
2023/05/23 10:22:41;;;;;;;6.32;1.70;;;13.80;99.90;;;;;;5151875;27;20058;-69
2023/05/23 10:25:09;;;;;;;7.82;2.03;;;13.80;99.90;;;;;;5154102;27;20046;-72
2023/05/23 10:27:38;;;;;;;8.45;1.75;;;13.90;99.90;;;;;;5154429;27;20121;-71
2023/05/23 10:30:08;;;;;;;6.15;1.48;;;14.00;99.90;;;;;;5154551;27;20034;-71
2023/05/23 10:32:38;;;;;;;9.63;1.92;;;14.00;99.90;;;;;;5119959;27;20050;-69
2023/05/23 10:35:31;;;;;;;7.85;2.05;;;13.90;99.90;;;;;;5135101;27;20045;-70
2023/05/23 10:38:11;;;;;;;9.70;1.77;;;13.90;99.90;;;;;;5136137;27;20130;-72
2023/05/23 10:40:52;;;;;;;4.88;1.45;;;13.80;99.90;;;;;;5153741;27;20049;-78
2023/05/23 10:43:32;;;;;;;9.45;1.95;;;13.70;99.90;;;;;;5135744;27;20497;-71
2023/05/23 10:45:58;;;;;;;8.15;1.58;;;13.70;99.90;;;;;;5116134;27;20056;-73
2023/05/23 10:48:32;;;;;;;7.80;1.40;;;13.70;99.90;;;;;;5135551;27;20502;-78
2023/05/23 10:51:06;;;;;;;9.00;1.67;;;13.70;99.90;;;;;;5132951;27;20035;-74
2023/05/23 10:53:43;;;;;;;5.70;1.65;;;13.70;99.90;;;;;;5136434;27;20076;-74
2023/05/23 10:56:17;;;;;;;8.85;2.13;;;13.70;99.90;;;;;;5156620;27;20049;-76
2023/05/23 10:58:43;;;;;;;5.25;1.48;;;13.70;99.90;;;;;;5119317;27;20031;-78
2023/05/23 11:01:12;;;;;;;10.95;2.13;;;13.80;99.90;;;;;;5139415;27;20058;-74
2023/05/23 11:03:47;;;;;;;9.90;1.73;;;13.80;99.90;;;;;;5156691;27;20043;-73
2023/05/23 11:06:37;;;;;;;6.78;1.50;;;14.10;99.90;;;;;;5157693;27;20049;-77
2023/05/23 11:09:05;;;;;;;8.38;1.60;;;13.80;99.90;;;;;;5137862;27;20068;-75
2023/05/23 11:11:52;;;;;;;7.30;1.58;;;13.80;99.90;;;;;;5157346;27;20042;-73
2023/05/23 11:14:30;;;;;;;5.78;1.38;;;13.80;99.90;;;;;;5154450;27;20047;-73
2023/05/23 11:16:57;;;;;;;6.70;1.65;;;13.70;99.90;;;;;;5157449;27;20091;-74
2023/05/23 11:19:27;;;;;;;7.07;1.58;;;13.70;99.90;;;;;;5138846;27;20113;-73
2023/05/23 11:22:01;;;;;;;7.95;1.70;;;13.70;99.90;;;;;;5156842;27;20114;-74
2023/05/23 11:24:55;;;;;;;11.00;1.70;;;13.80;99.90;;;;;;5138797;27;20057;-73
2023/05/23 11:27:33;;;;;;;9.95;2.85;;;13.80;99.90;;;;;;5157613;27;20039;-74
2023/05/23 11:30:03;;;;;;;8.20;1.75;;;13.90;99.90;;;;;;5139021;27;20054;-75
2023/05/23 11:32:30;;;;;;;5.57;1.55;;;14.00;99.90;;;;;;5157732;27;20064;-74
2023/05/23 11:34:59;;;;;;;8.27;1.83;;;14.00;99.90;;;;;;5156997;27;20046;-75
2023/05/23 11:37:26;;;;;;;8.25;2.13;;;14.00;99.90;;;;;;5158573;27;20130;-73
2023/05/23 11:39:51;;;;;;;12.25;2.63;;;13.90;99.90;;;;;;5158209;27;20053;-73
2023/05/23 11:42:17;;;;;;;8.00;1.73;;;13.80;99.90;;;;;;5157120;27;20050;-72
2023/05/23 11:44:44;;;;;;;10.13;2.15;;;13.80;99.90;;;;;;5152695;27;20078;-75
2023/05/23 11:47:09;;;;;;;9.02;1.90;;;13.80;99.90;;;;;;5132668;27;20051;-73
2023/05/23 11:49:37;;;;;;;9.27;1.63;;;13.90;99.90;;;;;;5156188;27;20043;-75
2023/05/23 11:52:05;;;;;;;9.13;2.17;;;14.00;99.90;;;;;;5122259;27;20051;-74
2023/05/23 11:54:31;;;;;;;7.22;1.45;;;14.10;99.90;;;;;;5149276;27;20054;-74
2023/05/23 11:56:57;;;;;;;6.72;1.38;;;14.20;99.90;;;;;;5149291;27;20820;-77
2023/05/23 11:59:27;;;;;;;5.82;1.40;;;14.30;99.90;;;;;;5146228;27;20500;-72
2023/05/23 12:01:54;;;;;;;6.10;1.80;;;14.40;99.90;;;;;;5147607;27;20049;-74
2023/05/23 12:04:20;;;;;;;6.53;1.40;;;14.40;99.90;;;;;;5119686;27;20050;-74
2023/05/23 12:06:47;;;;;;;5.80;1.17;;;14.50;99.90;;;;;;5155989;27;20454;-74
2023/05/23 12:09:13;;;;;;;5.25;1.35;;;14.40;99.90;;;;;;5155534;27;20047;-77
2023/05/23 12:11:41;;;;;;;7.05;2.08;;;14.40;99.90;;;;;;5103437;27;20049;-74
2023/05/23 12:14:07;;;;;;;7.85;1.60;;;14.40;99.90;;;;;;5151105;27;20049;-74
2023/05/23 12:16:35;;;;;;;6.50;1.75;;;14.50;99.90;;;;;;5137387;27;20042;-77
2023/05/23 12:19:02;;;;;;;7.82;1.90;;;14.40;99.90;;;;;;5137275;27;20111;-75
2023/05/23 12:21:45;;;;;;;7.65;2.20;;;14.30;99.90;;;;;;5155642;27;20103;-74
2023/05/23 12:24:18;;;;;;;9.70;1.60;;;14.30;99.90;;;;;;5137584;27;20058;-78
2023/05/23 12:26:52;;;;;;;10.07;2.42;;;14.40;99.90;;;;;;5155932;27;20042;-75
2023/05/23 12:29:29;;;;;;;6.28;1.77;;;14.40;99.90;;;;;;5136449;27;20046;-75
2023/05/23 12:31:56;;;;;;;6.18;1.33;;;14.30;99.90;;;;;;5137341;27;20043;-76
2023/05/23 12:34:22;;;;;;;4.38;1.20;;;14.30;99.90;;;;;;5155267;27;20082;-75
2023/05/23 12:36:48;;;;;;;4.65;0.98;;;14.20;99.90;;;;;;5156069;27;20073;-74
2023/05/23 12:39:14;;;;;;;2.78;1.35;;;14.20;99.90;;;;;;5155580;27;20454;-75
2023/05/23 12:41:44;;;;;;;6.50;1.42;;;14.30;99.90;;;;;;5156046;27;20078;-75
2023/05/23 12:44:10;;;;;;;5.63;1.10;;;14.30;99.90;;;;;;5152295;27;20103;-75